Terminal Aerodrome Forecast
Issued by NWS

Home | Current Version | Previous Version | Text Only | Print | Product List | Glossary On
Versions: 1 2 3 4 5 6 7 8 9 10 11 12
000
FTUS42 KTAE 011100
TAFABY
TAF
KABY 011133Z 0112/0212 08004KT P6SM BKN250
     FM011400 15012G18KT P6SM BKN050
     FM012200 18012G18KT P6SM SCT025 OVC050
     FM020300 20015KT 4SM -RA BR OVC015
     FM020600 20013KT 2SM -RA BR OVC007=

USA.gov is the U.S. government's official web portal to all federal, state and local government web resources and services.